Time;durP1;ratioP1;P1;durP2;ratioP2;P2;SDS_P1;SDS_P2;PMS_P1;PMS_P2;Temp;Humidity;BMP_temperature;BMP_pressure;BME280_temperature;BME280_humidity;BME280_pressure;Samples;Min_cycle;Max_cycle;Signal;HPM_P1;HPM_P2
2023/09/28 00:01:00;;;;;;;2.90;0.95;;;18.70;99.90;;;;;;5077812;28;20012;-74
2023/09/28 00:03:27;;;;;;;1.60;0.63;;;18.70;99.90;;;;;;5077738;28;20027;-74
2023/09/28 00:05:53;;;;;;;2.97;0.98;;;18.70;99.90;;;;;;5095760;28;20089;-74
2023/09/28 00:08:18;;;;;;;1.23;0.57;;;18.70;99.90;;;;;;5095901;28;20519;-74
2023/09/28 00:10:44;;;;;;;2.63;0.55;;;18.70;99.90;;;;;;5095841;28;20103;-74
2023/09/28 00:13:10;;;;;;;2.15;0.50;;;18.70;99.90;;;;;;5077884;28;20069;-74
2023/09/28 00:15:35;;;;;;;5.63;0.63;;;18.70;99.90;;;;;;5095675;28;20024;-74
2023/09/28 00:18:02;;;;;;;2.10;0.52;;;18.60;99.90;;;;;;5095648;28;20024;-74
2023/09/28 00:20:28;;;;;;;5.22;0.88;;;18.60;99.90;;;;;;5095827;28;20520;-74
2023/09/28 00:22:55;;;;;;;1.15;0.60;;;18.60;99.90;;;;;;5096293;28;20020;-74
2023/09/28 00:25:23;;;;;;;3.08;0.52;;;18.60;99.90;;;;;;5077342;28;20030;-74
2023/09/28 00:27:51;;;;;;;1.10;0.50;;;18.60;99.90;;;;;;5095014;28;20020;-74
2023/09/28 00:30:21;;;;;;;3.42;0.32;;;18.60;99.90;;;;;;5095608;28;20032;-74
2023/09/28 00:32:48;;;;;;;1.92;0.93;;;18.50;99.90;;;;;;5095404;28;20498;-74
2023/09/28 00:35:15;;;;;;;2.13;0.50;;;18.50;99.90;;;;;;5095354;28;20016;-74
2023/09/28 00:37:41;;;;;;;1.60;0.10;;;18.50;99.90;;;;;;5095437;28;20064;-74
2023/09/28 00:42:46;;;;;;;3.10;0.75;;;18.50;99.90;;;;;;5096180;28;20137;-74
2023/09/28 00:45:13;;;;;;;2.40;0.30;;;18.50;99.90;;;;;;5095559;28;20020;-74
2023/09/28 00:47:39;;;;;;;2.45;0.95;;;18.50;99.90;;;;;;5095038;28;20035;-74
2023/09/28 00:50:15;;;;;;;3.90;1.38;;;18.40;99.90;;;;;;5094955;28;20017;-74
2023/09/28 00:52:43;;;;;;;2.65;0.77;;;18.40;99.90;;;;;;5095412;28;20008;-74
2023/09/28 00:55:10;;;;;;;3.45;1.00;;;18.40;99.90;;;;;;5095070;28;20066;-74
2023/09/28 00:57:38;;;;;;;1.83;0.47;;;18.40;99.90;;;;;;5094926;28;20056;-74
2023/09/28 01:00:23;;;;;;;2.22;0.75;;;18.30;99.90;;;;;;5095383;28;20099;-74
2023/09/28 01:02:50;;;;;;;1.42;0.45;;;18.20;99.90;;;;;;5094962;28;20018;-74
2023/09/28 01:05:17;;;;;;;1.33;0.40;;;18.20;99.90;;;;;;5094592;28;20140;-74
2023/09/28 01:07:43;;;;;;;1.10;0.32;;;18.20;99.90;;;;;;5076730;28;20016;-74
2023/09/28 01:10:09;;;;;;;3.58;0.63;;;18.10;99.90;;;;;;5094651;28;20031;-74
2023/09/28 01:12:38;;;;;;;3.40;0.75;;;18.00;99.90;;;;;;5094576;28;20476;-74
2023/09/28 01:15:09;;;;;;;3.70;0.68;;;18.00;99.90;;;;;;5094688;28;20024;-74
2023/09/28 01:17:36;;;;;;;2.80;0.70;;;18.00;99.90;;;;;;5094853;28;20020;-74
2023/09/28 01:20:10;;;;;;;4.25;0.50;;;17.90;99.90;;;;;;5094788;28;20023;-74
2023/09/28 01:22:36;;;;;;;3.38;1.10;;;17.90;99.90;;;;;;5094516;28;20379;-73
2023/09/28 01:25:03;;;;;;;1.40;0.77;;;17.90;99.90;;;;;;5076206;28;20057;-74
2023/09/28 01:27:29;;;;;;;5.43;0.77;;;17.80;99.90;;;;;;5094913;28;20047;-74
2023/09/28 01:29:54;;;;;;;1.73;0.50;;;17.80;99.90;;;;;;5094396;28;20100;-74
2023/09/28 01:32:20;;;;;;;2.05;0.88;;;17.70;99.90;;;;;;5094348;28;20032;-74
2023/09/28 01:34:45;;;;;;;1.60;0.50;;;17.70;99.90;;;;;;5094525;28;20023;-74
2023/09/28 01:37:11;;;;;;;3.10;1.02;;;17.70;99.90;;;;;;5076245;28;20020;-74
2023/09/28 01:39:38;;;;;;;6.05;1.13;;;17.60;99.90;;;;;;5093930;28;20020;-74
2023/09/28 01:42:03;;;;;;;3.03;1.00;;;17.60;99.90;;;;;;5093908;28;20032;-74
2023/09/28 01:44:29;;;;;;;4.45;1.05;;;17.60;99.90;;;;;;5093839;28;20032;-74
2023/09/28 01:46:54;;;;;;;3.50;0.75;;;17.60;99.90;;;;;;5094216;28;20115;-74
2023/09/28 01:49:20;;;;;;;2.13;0.80;;;17.60;99.90;;;;;;5094186;28;20024;-74
2023/09/28 01:51:45;;;;;;;2.53;0.80;;;17.50;99.90;;;;;;5075838;28;20028;-74
2023/09/28 01:54:11;;;;;;;1.08;0.60;;;17.60;99.90;;;;;;5093655;28;20016;-74
2023/09/28 01:56:37;;;;;;;2.65;0.95;;;17.60;99.90;;;;;;5075993;28;20066;-74
2023/09/28 01:59:02;;;;;;;8.23;1.63;;;17.60;99.90;;;;;;5093769;28;20016;-74
2023/09/28 02:01:29;;;;;;;2.85;0.90;;;17.60;99.90;;;;;;5093832;28;20020;-74
2023/09/28 02:03:54;;;;;;;3.53;0.95;;;17.60;99.90;;;;;;5093940;28;20419;-74
2023/09/28 02:06:20;;;;;;;5.35;1.58;;;17.50;99.90;;;;;;5093813;28;20024;-74
2023/09/28 02:08:46;;;;;;;3.35;1.10;;;17.50;99.90;;;;;;5075704;28;20027;-74
2023/09/28 02:11:11;;;;;;;1.85;1.15;;;17.40;99.90;;;;;;5093901;28;20032;-74
2023/09/28 02:13:37;;;;;;;3.35;1.45;;;17.50;99.90;;;;;;5093982;28;20027;-74
2023/09/28 02:16:07;;;;;;;2.17;1.08;;;17.40;99.90;;;;;;5093867;28;20506;-74
2023/09/28 02:18:33;;;;;;;6.50;1.52;;;17.40;99.90;;;;;;5075742;28;20016;-71
2023/09/28 02:20:58;;;;;;;2.75;1.05;;;17.40;99.90;;;;;;5075364;28;20111;-71
2023/09/28 02:23:24;;;;;;;7.00;2.05;;;17.30;99.90;;;;;;5093594;28;20028;-71
2023/09/28 02:25:49;;;;;;;12.85;1.45;;;17.30;99.90;;;;;;5093364;28;20122;-71
2023/09/28 02:28:15;;;;;;;4.80;0.90;;;17.30;99.90;;;;;;5093785;28;20085;-71
2023/09/28 02:30:40;;;;;;;4.25;1.23;;;17.20;99.90;;;;;;5093310;28;20067;-71
2023/09/28 02:33:06;;;;;;;3.95;1.67;;;17.20;99.90;;;;;;5094359;28;20108;-71
2023/09/28 02:35:32;;;;;;;5.22;1.63;;;17.20;99.90;;;;;;5093800;28;20017;-71
2023/09/28 02:37:57;;;;;;;3.50;1.38;;;17.30;99.90;;;;;;5075368;28;20383;-71
2023/09/28 02:40:23;;;;;;;2.83;1.25;;;17.40;99.90;;;;;;5075364;28;20503;-71
2023/09/28 02:42:49;;;;;;;5.95;2.25;;;17.30;99.90;;;;;;5093510;28;20097;-71
2023/09/28 02:45:15;;;;;;;6.70;1.90;;;17.30;99.90;;;;;;5093459;28;20032;-71
2023/09/28 02:47:43;;;;;;;5.00;1.50;;;17.30;99.90;;;;;;5093243;28;20032;-71
2023/09/28 02:50:09;;;;;;;3.10;1.50;;;17.30;99.90;;;;;;5094971;28;20024;-71
2023/09/28 02:52:37;;;;;;;5.10;1.60;;;17.30;99.90;;;;;;5097498;28;20106;-71
2023/09/28 02:55:06;;;;;;;4.20;1.25;;;17.30;99.90;;;;;;5078881;28;20042;-71
2023/09/28 02:57:31;;;;;;;3.58;1.08;;;17.30;99.90;;;;;;5079225;28;20090;-74
2023/09/28 02:59:58;;;;;;;3.42;1.33;;;17.30;99.90;;;;;;5097638;28;20012;-74
2023/09/28 03:02:23;;;;;;;6.35;1.38;;;17.30;99.90;;;;;;5097170;28;20077;-74
2023/09/28 03:04:49;;;;;;;2.58;0.88;;;17.30;99.90;;;;;;5078985;28;20032;-74
2023/09/28 03:07:14;;;;;;;4.97;0.98;;;17.40;99.90;;;;;;5097175;28;20020;-74
2023/09/28 03:09:40;;;;;;;3.05;0.93;;;17.40;99.90;;;;;;5097174;28;20070;-74
2023/09/28 03:12:06;;;;;;;2.15;0.55;;;17.40;99.90;;;;;;5096933;28;20032;-74
2023/09/28 03:14:31;;;;;;;3.67;1.15;;;17.40;99.90;;;;;;5097083;28;20016;-74
2023/09/28 03:16:57;;;;;;;3.22;0.63;;;17.40;99.90;;;;;;5096995;28;20020;-74
2023/09/28 03:19:23;;;;;;;3.15;1.00;;;17.40;99.90;;;;;;5097024;28;20012;-74
2023/09/28 03:21:49;;;;;;;2.05;0.70;;;17.40;99.90;;;;;;5078911;28;20061;-74
2023/09/28 03:24:14;;;;;;;2.60;1.30;;;17.20;99.90;;;;;;5097067;28;20099;-74
2023/09/28 03:26:40;;;;;;;4.00;0.68;;;17.30;99.90;;;;;;5078727;28;20065;-74
2023/09/28 03:29:06;;;;;;;6.30;1.25;;;17.20;99.90;;;;;;5096762;28;20035;-74
2023/09/28 03:31:32;;;;;;;2.47;0.88;;;17.10;99.90;;;;;;5097397;28;20051;-74
2023/09/28 03:33:58;;;;;;;3.65;1.00;;;17.10;99.90;;;;;;5096745;28;20020;-74
2023/09/28 03:36:24;;;;;;;3.28;0.65;;;17.10;99.90;;;;;;5096635;28;20027;-74
2023/09/28 03:38:50;;;;;;;4.32;0.93;;;17.10;99.90;;;;;;5078459;28;20020;-74
2023/09/28 03:41:17;;;;;;;6.47;1.02;;;17.00;99.90;;;;;;5096901;28;20074;-74
2023/09/28 03:43:43;;;;;;;3.67;0.50;;;17.00;99.90;;;;;;5096366;28;20063;-74
2023/09/28 03:46:09;;;;;;;4.25;1.00;;;17.00;99.90;;;;;;5096167;28;20368;-74
2023/09/28 03:48:35;;;;;;;7.25;1.35;;;17.00;99.90;;;;;;5096888;28;20080;-74
2023/09/28 03:51:01;;;;;;;3.28;0.55;;;17.10;99.90;;;;;;5096308;28;20042;-74
2023/09/28 03:53:27;;;;;;;4.35;0.98;;;17.10;99.90;;;;;;5096794;28;20413;-74
2023/09/28 03:55:52;;;;;;;1.50;0.70;;;17.10;99.90;;;;;;5096213;28;20158;-74
2023/09/28 03:58:18;;;;;;;5.68;0.25;;;17.10;99.90;;;;;;5096282;28;20020;-74
2023/09/28 04:00:44;;;;;;;5.93;0.60;;;17.10;99.90;;;;;;5077888;28;20170;-74
2023/09/28 04:03:11;;;;;;;2.90;0.73;;;17.00;99.90;;;;;;5095763;28;20099;-74
2023/09/28 04:05:37;;;;;;;2.85;0.40;;;17.00;99.90;;;;;;5096482;28;20024;-74
2023/09/28 04:08:03;;;;;;;2.88;0.68;;;16.90;99.90;;;;;;5078024;28;20547;-74
2023/09/28 04:10:28;;;;;;;6.57;0.60;;;16.90;99.90;;;;;;5095998;28;20040;-74
2023/09/28 04:12:54;;;;;;;5.35;0.65;;;16.90;99.90;;;;;;5095846;28;20020;-74
2023/09/28 04:15:20;;;;;;;8.10;0.98;;;16.80;99.90;;;;;;5095711;28;20502;-74
2023/09/28 04:17:45;;;;;;;8.48;0.30;;;16.70;99.90;;;;;;5095852;28;20091;-74
2023/09/28 04:20:11;;;;;;;9.27;0.93;;;16.80;99.90;;;;;;5095625;28;20103;-74
2023/09/28 04:22:37;;;;;;;8.85;0.50;;;16.70;99.90;;;;;;5095672;28;20051;-74
2023/09/28 04:25:03;;;;;;;5.78;0.50;;;16.70;99.90;;;;;;5095703;28;20027;-74
2023/09/28 04:27:29;;;;;;;5.63;0.55;;;16.70;99.90;;;;;;5095609;28;20091;-74
2023/09/28 04:29:55;;;;;;;6.13;0.28;;;16.60;99.90;;;;;;5095507;28;20059;-74
2023/09/28 04:32:21;;;;;;;4.53;1.10;;;16.60;99.90;;;;;;5077487;28;20020;-74
2023/09/28 04:34:46;;;;;;;8.95;0.68;;;16.60;99.90;;;;;;5095440;28;20028;-74
2023/09/28 04:37:12;;;;;;;7.60;0.77;;;16.70;99.90;;;;;;5095660;28;20490;-74
2023/09/28 04:39:37;;;;;;;10.05;0.75;;;16.60;99.90;;;;;;5095838;28;20344;-74
2023/09/28 04:42:04;;;;;;;7.45;0.73;;;16.50;99.90;;;;;;5095572;28;20103;-74
2023/09/28 04:44:30;;;;;;;11.02;1.83;;;16.50;99.90;;;;;;5076947;28;20027;-74
2023/09/28 04:46:55;;;;;;;9.38;0.82;;;16.50;99.90;;;;;;5095254;28;20031;-74
2023/09/28 04:49:21;;;;;;;6.18;0.63;;;16.50;99.90;;;;;;5095422;28;20034;-74
2023/09/28 04:51:47;;;;;;;6.50;1.05;;;16.40;99.90;;;;;;5095003;28;20032;-74
2023/09/28 04:54:14;;;;;;;5.30;0.95;;;16.50;99.90;;;;;;5095363;28;20022;-74
2023/09/28 04:56:40;;;;;;;7.20;0.95;;;16.50;99.90;;;;;;5095773;28;20103;-74
2023/09/28 04:59:05;;;;;;;12.93;1.33;;;16.50;99.90;;;;;;5095055;28;20059;-74
2023/09/28 05:01:31;;;;;;;13.85;0.63;;;16.60;99.90;;;;;;5094857;28;20020;-74
2023/09/28 05:03:57;;;;;;;9.73;0.85;;;16.60;99.90;;;;;;5094968;28;20387;-74
2023/09/28 05:06:22;;;;;;;8.88;0.50;;;16.60;99.90;;;;;;5076734;28;20020;-74
2023/09/28 05:08:49;;;;;;;9.43;1.15;;;16.60;99.90;;;;;;5094824;28;20020;-74
2023/09/28 05:11:15;;;;;;;8.43;0.63;;;16.60;99.90;;;;;;5094661;28;20020;-74
2023/09/28 05:13:41;;;;;;;7.40;1.15;;;16.60;99.90;;;;;;5075558;28;20031;-74
2023/09/28 05:16:07;;;;;;;8.73;0.75;;;16.50;99.90;;;;;;5094469;28;20055;-74
2023/09/28 05:18:33;;;;;;;10.95;0.88;;;16.40;99.90;;;;;;5094548;28;20380;-74
2023/09/28 05:20:58;;;;;;;11.30;0.73;;;16.40;99.90;;;;;;5094548;28;20016;-74
2023/09/28 05:23:26;;;;;;;16.40;1.83;;;16.40;99.90;;;;;;5094667;28;20055;-74
2023/09/28 05:25:52;;;;;;;9.52;0.52;;;16.40;99.90;;;;;;5094604;28;20027;-74
2023/09/28 05:28:17;;;;;;;13.23;1.65;;;16.30;99.90;;;;;;5094816;28;20024;-74
2023/09/28 05:30:43;;;;;;;10.88;0.98;;;16.30;99.90;;;;;;5094311;28;20028;-75
2023/09/28 05:33:08;;;;;;;10.95;1.52;;;16.30;99.90;;;;;;5094641;28;20020;-74
2023/09/28 05:35:34;;;;;;;7.18;0.70;;;16.30;99.90;;;;;;5094390;28;20055;-74
2023/09/28 05:37:59;;;;;;;8.70;0.60;;;16.20;99.90;;;;;;5094360;28;20055;-75
2023/09/28 05:40:25;;;;;;;17.98;1.35;;;16.20;99.90;;;;;;5094526;28;20024;-75
2023/09/28 05:42:51;;;;;;;15.88;1.85;;;16.20;99.90;;;;;;5094039;28;20364;-74
2023/09/28 05:45:17;;;;;;;12.50;0.63;;;16.20;99.90;;;;;;5093971;28;20024;-74
2023/09/28 05:47:43;;;;;;;16.50;2.33;;;16.20;99.90;;;;;;5094328;28;20455;-74
2023/09/28 05:50:08;;;;;;;13.07;1.67;;;16.10;99.90;;;;;;5093901;28;20399;-74
2023/09/28 05:52:34;;;;;;;15.40;1.15;;;16.10;99.90;;;;;;5093920;28;20024;-74
2023/09/28 05:55:00;;;;;;;13.00;0.50;;;16.10;99.90;;;;;;5093725;28;20030;-74
2023/09/28 05:57:25;;;;;;;18.15;1.77;;;16.10;99.90;;;;;;5094579;28;20028;-74
2023/09/28 05:59:51;;;;;;;14.73;1.17;;;16.10;99.90;;;;;;5076087;28;20104;-74
2023/09/28 06:02:19;;;;;;;17.60;1.33;;;16.00;99.90;;;;;;5094035;28;20028;-74
2023/09/28 06:04:44;;;;;;;13.13;0.75;;;16.00;99.90;;;;;;5093835;28;20020;-71
2023/09/28 06:07:10;;;;;;;14.07;1.27;;;16.00;99.90;;;;;;5093618;28;20046;-71
2023/09/28 06:09:36;;;;;;;12.25;0.95;;;16.00;99.90;;;;;;5093530;28;20491;-71
2023/09/28 06:12:02;;;;;;;17.13;1.08;;;15.90;99.90;;;;;;5093562;28;20024;-71
2023/09/28 06:14:28;;;;;;;11.60;1.02;;;16.00;99.90;;;;;;5093479;28;20022;-71
2023/09/28 06:16:54;;;;;;;9.80;1.33;;;16.00;99.90;;;;;;5094012;28;20028;-71
2023/09/28 06:19:20;;;;;;;12.88;1.20;;;16.00;99.90;;;;;;5093509;28;20050;-71
2023/09/28 06:21:45;;;;;;;10.65;0.90;;;16.00;99.90;;;;;;5093525;28;20062;-71
2023/09/28 06:24:11;;;;;;;14.82;1.05;;;16.00;99.90;;;;;;5093142;28;20086;-71
2023/09/28 06:26:37;;;;;;;14.43;0.60;;;16.00;99.90;;;;;;5093479;28;20021;-71
2023/09/28 06:29:03;;;;;;;20.73;1.23;;;16.00;99.90;;;;;;5075565;28;20020;-71
2023/09/28 06:31:29;;;;;;;22.60;0.98;;;16.00;99.90;;;;;;5093587;28;20024;-71
2023/09/28 06:33:55;;;;;;;17.80;1.20;;;16.00;99.90;;;;;;5093564;28;20031;-71
2023/09/28 06:36:21;;;;;;;18.73;0.75;;;16.10;99.90;;;;;;5093361;28;20498;-71
2023/09/28 06:38:47;;;;;;;17.40;0.75;;;16.10;99.90;;;;;;5093345;28;20101;-71
2023/09/28 06:41:13;;;;;;;15.70;0.90;;;16.10;99.90;;;;;;5093776;28;20020;-71
2023/09/28 06:43:39;;;;;;;20.30;2.17;;;16.20;99.90;;;;;;5093428;28;20395;-71
2023/09/28 06:46:04;;;;;;;21.50;0.95;;;16.30;99.90;;;;;;5093334;28;20020;-71
2023/09/28 06:48:30;;;;;;;14.43;2.47;;;16.30;99.90;;;;;;5093457;28;20027;-71
2023/09/28 06:50:57;;;;;;;13.77;1.95;;;16.40;99.90;;;;;;5075124;28;20023;-71
2023/09/28 06:53:23;;;;;;;21.05;1.95;;;16.40;99.90;;;;;;5093337;28;20016;-71
2023/09/28 06:55:49;;;;;;;16.48;1.98;;;16.50;99.90;;;;;;5093097;28;20043;-71
2023/09/28 06:58:15;;;;;;;19.48;1.73;;;16.60;99.90;;;;;;5093227;28;20095;-71
2023/09/28 07:00:41;;;;;;;16.02;1.15;;;16.80;99.90;;;;;;5093119;28;20024;-71
2023/09/28 07:03:08;;;;;;;22.70;1.67;;;16.80;99.90;;;;;;5093104;28;20020;-71
2023/09/28 07:05:34;;;;;;;18.75;1.98;;;16.90;99.90;;;;;;5092927;28;20028;-71
2023/09/28 07:08:00;;;;;;;13.55;1.63;;;16.90;99.90;;;;;;5093294;28;20391;-71
2023/09/28 07:10:26;;;;;;;16.63;0.52;;;17.00;99.90;;;;;;5093010;28;20028;-71
2023/09/28 07:12:52;;;;;;;18.77;2.30;;;17.00;99.90;;;;;;5092817;28;20012;-71
2023/09/28 07:15:18;;;;;;;14.25;0.80;;;17.10;99.90;;;;;;5092814;28;20048;-71
2023/09/28 07:17:44;;;;;;;15.30;1.88;;;17.10;99.90;;;;;;5093327;28;20109;-71
2023/09/28 07:20:11;;;;;;;10.38;0.60;;;17.20;99.90;;;;;;5092947;28;20027;-71
2023/09/28 07:22:37;;;;;;;15.80;0.75;;;17.20;99.90;;;;;;5092793;28;20027;-71
2023/09/28 07:25:03;;;;;;;10.25;1.42;;;17.30;99.90;;;;;;5092906;28;20390;-71
2023/09/28 07:27:32;;;;;;;14.35;1.67;;;17.20;99.90;;;;;;5074721;28;20082;-71
2023/09/28 07:29:59;;;;;;;;;;;17.30;99.90;;;;;;5093330;28;20024;-71
2023/09/28 07:32:26;;;;;;;14.32;1.15;;;17.30;99.90;;;;;;5092931;28;19912;-71
2023/09/28 07:34:52;;;;;;;14.02;1.35;;;17.30;99.90;;;;;;5093339;28;20103;-71
2023/09/28 07:37:18;;;;;;;17.77;0.95;;;17.30;99.90;;;;;;5094679;28;20074;-71
2023/09/28 07:39:44;;;;;;;16.00;1.20;;;17.30;99.90;;;;;;5096469;28;20364;-71
2023/09/28 07:42:09;;;;;;;12.25;1.20;;;17.40;99.90;;;;;;5096489;28;20027;-71
2023/09/28 07:44:40;;;;;;;16.58;1.10;;;17.40;99.90;;;;;;5096285;28;20165;-71
2023/09/28 07:47:07;;;;;;;10.60;1.27;;;17.40;99.90;;;;;;5096302;28;20024;-71
2023/09/28 07:49:32;;;;;;;15.02;1.45;;;17.40;99.90;;;;;;5077935;28;20059;-71
2023/09/28 07:51:58;;;;;;;8.73;1.05;;;17.40;99.90;;;;;;5096062;28;20055;-71
2023/09/28 07:54:23;;;;;;;18.00;1.27;;;17.40;99.90;;;;;;5095867;28;20047;-71
2023/09/28 07:56:49;;;;;;;12.90;0.93;;;17.40;99.90;;;;;;5096239;28;20487;-70
2023/09/28 07:59:14;;;;;;;19.23;2.40;;;17.40;99.90;;;;;;5096170;28;20113;-71
2023/09/28 08:01:41;;;;;;;10.75;1.20;;;17.50;99.90;;;;;;5096461;28;20031;-71
2023/09/28 08:04:08;;;;;;;8.30;1.20;;;17.50;99.90;;;;;;5096065;28;20058;-71
2023/09/28 08:06:34;;;;;;;17.02;1.48;;;17.40;99.90;;;;;;5096015;28;20035;-71
2023/09/28 08:09:03;;;;;;;19.30;1.20;;;17.50;99.90;;;;;;5095926;28;20020;-71
2023/09/28 08:11:28;;;;;;;;;;;17.60;99.90;;;;;;5095897;28;20035;-71
2023/09/28 08:13:54;;;;;;;13.48;0.60;;;17.60;99.90;;;;;;5095815;28;19906;-71
2023/09/28 08:16:20;;;;;;;21.15;2.78;;;17.70;99.90;;;;;;5095732;28;20016;-71
2023/09/28 08:18:46;;;;;;;9.48;1.52;;;17.80;99.90;;;;;;5095657;28;20077;-71
2023/09/28 08:21:12;;;;;;;10.50;1.38;;;17.90;99.90;;;;;;5095383;28;20427;-71
2023/09/28 08:23:37;;;;;;;15.88;1.40;;;18.00;99.90;;;;;;5095541;28;20069;-71
2023/09/28 08:26:03;;;;;;;17.77;1.85;;;18.10;99.90;;;;;;5095425;28;20479;-71
2023/09/28 08:28:29;;;;;;;14.98;1.83;;;18.20;99.90;;;;;;5095422;28;20024;-71
2023/09/28 08:30:56;;;;;;;10.73;0.68;;;18.40;99.90;;;;;;5095234;28;20024;-71
2023/09/28 08:33:22;;;;;;;10.25;1.42;;;18.40;99.90;;;;;;5095274;28;20076;-71
2023/09/28 08:35:51;;;;;;;16.25;1.38;;;18.30;99.90;;;;;;5095161;28;20020;-71
2023/09/28 08:38:17;;;;;;;14.98;1.17;;;18.50;99.90;;;;;;5095276;28;20026;-71
2023/09/28 08:40:43;;;;;;;10.60;0.68;;;18.50;99.90;;;;;;5095055;28;20074;-71
2023/09/28 08:43:11;;;;;;;18.70;1.88;;;18.60;99.90;;;;;;5076699;28;20053;-71
2023/09/28 08:45:40;;;;;;;;;;;18.60;99.90;;;;;;5095294;28;20427;-71
2023/09/28 08:48:09;;;;;;;17.35;1.70;;;18.80;99.90;;;;;;5094681;28;19912;-71
2023/09/28 08:50:38;;;;;;;7.68;1.20;;;18.90;99.90;;;;;;5094905;28;20020;-71
2023/09/28 08:53:05;;;;;;;16.13;1.77;;;19.00;99.90;;;;;;5094966;28;20539;-71
2023/09/28 08:55:33;;;;;;;13.10;1.02;;;19.20;99.90;;;;;;5094538;28;20052;-71
2023/09/28 08:57:59;;;;;;;16.10;1.85;;;19.30;99.90;;;;;;5076647;28;20024;-71
2023/09/28 09:00:25;;;;;;;18.02;1.38;;;19.20;99.90;;;;;;5094600;28;20028;-71
2023/09/28 09:02:52;;;;;;;14.38;1.50;;;19.20;99.90;;;;;;5094606;28;20388;-71
2023/09/28 09:05:17;;;;;;;9.25;0.95;;;19.10;99.90;;;;;;5094475;28;20051;-71
2023/09/28 09:07:44;;;;;;;11.45;1.30;;;19.20;99.90;;;;;;5076349;28;20451;-71
2023/09/28 09:10:17;;;;;;;10.00;1.50;;;19.30;99.90;;;;;;5094497;28;20016;-71
2023/09/28 09:12:42;;;;;;;17.63;1.30;;;19.30;99.90;;;;;;5094751;28;20035;-71
2023/09/28 09:15:09;;;;;;;12.70;1.05;;;19.50;99.90;;;;;;5076280;28;20021;-71
2023/09/28 09:17:35;;;;;;;12.48;1.55;;;19.50;99.90;;;;;;5094312;28;20082;-71
2023/09/28 09:20:05;;;;;;;15.25;0.85;;;19.60;99.90;;;;;;5094257;28;20138;-71
2023/09/28 09:22:30;;;;;;;15.70;1.17;;;19.70;99.90;;;;;;5076098;28;20031;-71
2023/09/28 09:24:57;;;;;;;11.02;1.20;;;19.80;99.90;;;;;;5094160;28;20031;-71
2023/09/28 09:27:27;;;;;;;18.55;1.17;;;19.80;99.90;;;;;;5094155;28;20058;-71
2023/09/28 09:29:57;;;;;;;8.82;0.88;;;19.70;99.90;;;;;;5094678;28;20031;-71
2023/09/28 09:32:27;;;;;;;17.08;1.08;;;19.80;99.90;;;;;;5094127;28;20024;-71
2023/09/28 09:34:54;;;;;;;13.32;1.52;;;19.80;99.90;;;;;;5093984;28;20024;-71
2023/09/28 09:37:19;;;;;;;13.68;1.83;;;19.80;99.90;;;;;;5093995;28;20114;-71
2023/09/28 09:39:45;;;;;;;8.88;1.45;;;19.60;99.90;;;;;;5094027;28;20052;-71
2023/09/28 09:42:11;;;;;;;13.73;1.55;;;19.70;99.90;;;;;;5093926;28;20046;-71
2023/09/28 09:44:37;;;;;;;7.38;0.88;;;19.90;99.90;;;;;;5093831;28;20024;-71
2023/09/28 09:47:03;;;;;;;10.70;1.38;;;20.00;99.90;;;;;;5093856;28;20428;-71
2023/09/28 09:49:29;;;;;;;12.77;1.40;;;20.00;99.90;;;;;;5093737;28;20063;-71
2023/09/28 09:52:02;;;;;;;10.00;1.52;;;20.00;99.90;;;;;;5093750;28;20031;-71
2023/09/28 09:54:29;;;;;;;16.23;1.35;;;20.00;99.90;;;;;;5093763;28;20085;-71
2023/09/28 09:56:56;;;;;;;14.40;1.45;;;20.00;99.90;;;;;;5094257;28;20028;-71
2023/09/28 09:59:22;;;;;;;12.38;1.40;;;20.10;99.90;;;;;;5093603;28;20495;-71
2023/09/28 10:01:53;;;;;;;9.10;1.10;;;20.30;99.90;;;;;;5093774;28;20527;-71
2023/09/28 10:04:21;;;;;;;17.58;0.95;;;20.20;99.90;;;;;;5093686;28;20374;-71
2023/09/28 10:06:48;;;;;;;9.67;1.63;;;20.10;99.90;;;;;;5075499;28;20032;-71
2023/09/28 10:09:19;;;;;;;15.80;1.85;;;20.20;99.90;;;;;;5075312;28;20069;-71
2023/09/28 10:11:47;;;;;;;14.15;1.70;;;20.20;99.90;;;;;;5093481;28;20028;-71
2023/09/28 10:14:15;;;;;;;12.80;0.93;;;20.40;99.90;;;;;;5093726;28;20019;-71
2023/09/28 10:16:41;;;;;;;;;;;20.30;99.90;;;;;;5075719;28;20016;-70
2023/09/28 10:19:09;;;;;;;14.38;1.20;;;20.30;99.90;;;;;;5093348;28;20313;-71
2023/09/28 10:21:38;;;;;;;12.00;1.15;;;20.30;99.90;;;;;;5093356;28;20024;-71
2023/09/28 10:24:11;;;;;;;15.45;1.27;;;20.30;99.90;;;;;;5075178;28;20024;-71
2023/09/28 10:26:40;;;;;;;17.13;1.98;;;20.30;99.90;;;;;;5093394;28;20450;-71
2023/09/28 10:29:09;;;;;;;;;;;20.30;99.90;;;;;;5093651;28;20243;-71
2023/09/28 10:31:41;;;;;;;17.77;2.05;;;20.40;99.90;;;;;;5075056;28;19915;-71
2023/09/28 10:34:08;;;;;;;7.28;0.82;;;20.40;99.90;;;;;;5093095;28;20012;-71
2023/09/28 10:36:37;;;;;;;9.00;0.98;;;20.30;99.90;;;;;;5093708;28;20024;-71
2023/09/28 10:39:14;;;;;;;14.65;1.63;;;20.40;99.90;;;;;;5093116;28;20026;-71
2023/09/28 10:41:49;;;;;;;12.48;1.15;;;20.40;99.90;;;;;;5093084;28;20020;-71
2023/09/28 10:44:18;;;;;;;15.60;0.98;;;20.30;99.90;;;;;;5092888;28;20016;-71
2023/09/28 10:46:48;;;;;;;18.08;1.42;;;20.30;99.90;;;;;;5093109;28;20085;-71
2023/09/28 10:49:24;;;;;;;9.48;0.43;;;20.20;99.90;;;;;;5092997;28;20031;-71
2023/09/28 10:51:51;;;;;;;9.00;1.13;;;20.30;99.90;;;;;;5092998;28;20391;-71
2023/09/28 10:54:17;;;;;;;9.73;0.70;;;;;;;;;;5092878;28;20103;-71
2023/09/28 10:56:42;;;;;;;12.82;1.23;;;20.30;99.90;;;;;;5093512;28;20396;-71
2023/09/28 10:59:10;;;;;;;13.38;1.55;;;20.40;99.90;;;;;;5093148;28;20016;-71
2023/09/28 11:01:46;;;;;;;11.32;0.88;;;20.50;99.90;;;;;;5092942;28;20035;-71
2023/09/28 11:04:13;;;;;;;7.80;0.73;;;20.60;99.90;;;;;;5092937;28;20024;-71
2023/09/28 11:06:43;;;;;;;10.13;1.25;;;20.70;99.90;;;;;;5092951;28;20099;-71
2023/09/28 11:09:09;;;;;;;9.18;1.08;;;20.50;99.90;;;;;;5092886;28;20024;-71
2023/09/28 11:11:37;;;;;;;13.57;1.63;;;20.50;99.90;;;;;;5095164;28;20038;-71
2023/09/28 11:14:05;;;;;;;14.23;1.80;;;20.30;99.90;;;;;;5096717;28;20021;-71
2023/09/28 11:16:33;;;;;;;11.25;0.90;;;20.30;99.90;;;;;;5097187;28;20024;-71
2023/09/28 11:19:00;;;;;;;12.10;2.25;;;20.30;99.90;;;;;;5096470;28;20042;-71
2023/09/28 11:21:26;;;;;;;9.57;0.95;;;20.30;99.90;;;;;;5096499;28;20395;-71
2023/09/28 11:23:52;;;;;;;8.77;0.80;;;20.20;99.90;;;;;;5096438;28;20426;-71
2023/09/28 11:26:22;;;;;;;10.50;1.23;;;20.00;99.90;;;;;;5096934;28;20020;-71
2023/09/28 11:28:49;;;;;;;13.25;1.42;;;20.00;99.90;;;;;;5096453;28;20020;-71
2023/09/28 11:31:15;;;;;;;21.10;2.03;;;19.90;99.90;;;;;;5096803;28;20483;-71
2023/09/28 11:33:42;;;;;;;9.43;0.68;;;19.90;99.90;;;;;;5096817;28;20106;-71
2023/09/28 11:36:20;;;;;;;9.02;1.00;;;19.90;99.90;;;;;;5096136;28;20028;-71
2023/09/28 11:38:47;;;;;;;14.93;1.25;;;19.90;99.90;;;;;;5096293;28;20416;-71
2023/09/28 11:41:16;;;;;;;12.65;0.73;;;20.00;99.90;;;;;;5096251;28;20047;-71
2023/09/28 11:43:56;;;;;;;10.48;1.38;;;20.10;99.90;;;;;;5096305;28;20024;-71
2023/09/28 11:46:24;;;;;;;12.50;0.73;;;20.10;99.90;;;;;;5096134;28;20118;-71
2023/09/28 11:49:06;;;;;;;13.40;1.93;;;20.10;99.90;;;;;;5096106;28;20020;-71
2023/09/28 11:51:33;;;;;;;15.65;1.55;;;20.20;99.90;;;;;;5096042;28;20127;-71
2023/09/28 11:53:59;;;;;;;12.70;1.35;;;20.30;99.90;;;;;;5096073;28;20486;-71
2023/09/28 11:56:25;;;;;;;12.82;1.65;;;20.30;99.90;;;;;;5095728;28;20494;-71
2023/09/28 11:58:51;;;;;;;16.35;2.03;;;20.40;99.90;;;;;;5095903;28;20020;-71
2023/09/28 12:01:17;;;;;;;15.18;1.58;;;20.30;99.90;;;;;;5096418;28;20026;-71
2023/09/28 12:03:44;;;;;;;16.45;1.13;;;20.50;99.90;;;;;;5096380;28;20414;-71
2023/09/28 12:06:10;;;;;;;10.77;0.82;;;20.60;99.90;;;;;;5095658;28;20028;-71
2023/09/28 12:08:36;;;;;;;17.38;0.95;;;20.70;99.90;;;;;;5077473;28;20441;-71
2023/09/28 12:11:02;;;;;;;7.65;0.68;;;20.70;99.90;;;;;;5095532;28;20553;-71
2023/09/28 12:13:27;;;;;;;7.03;0.93;;;20.70;99.90;;;;;;5095507;28;20016;-71
2023/09/28 12:15:54;;;;;;;13.48;1.15;;;20.70;99.90;;;;;;5095589;28;20070;-71
2023/09/28 12:18:21;;;;;;;19.08;1.42;;;20.70;99.90;;;;;;5077548;28;20027;-71
2023/09/28 12:20:47;;;;;;;9.45;0.73;;;20.90;99.90;;;;;;5095546;28;20028;-70
2023/09/28 12:23:13;;;;;;;6.72;1.30;;;21.00;99.90;;;;;;5094742;28;20027;-71
2023/09/28 12:25:40;;;;;;;7.63;0.80;;;21.10;99.90;;;;;;5095320;28;20028;-71
2023/09/28 12:28:09;;;;;;;5.85;0.63;;;21.00;99.90;;;;;;5095307;28;20526;-71
2023/09/28 12:30:35;;;;;;;15.85;2.58;;;20.90;99.90;;;;;;5095624;28;20020;-71
2023/09/28 12:33:01;;;;;;;13.05;0.90;;;20.70;99.90;;;;;;5095753;28;20082;-71
2023/09/28 12:35:27;;;;;;;11.15;0.80;;;20.70;99.90;;;;;;5095146;28;20062;-71
2023/09/28 12:37:53;;;;;;;9.65;0.88;;;20.70;99.90;;;;;;5095407;28;20039;-71
2023/09/28 12:40:19;;;;;;;15.90;1.08;;;20.90;99.90;;;;;;5095083;28;20021;-71
2023/09/28 12:42:44;;;;;;;5.18;0.60;;;20.90;99.90;;;;;;5094967;28;20030;-71